Flight Track Log - Related Links

Times and Time Zones

All times are in EDT time to prevent confusion due to time zone crossing. See the FLG3729 flight status page for this flight to view local times or setup timezone preferences in your user account.

Time Position Orientation Groundspeed Altitude Reporting Facility
EDT Latitude Longitude Course Direction KTS MPH feet Rate Location/Type
Fri 05:46:49 AM 42.7714 -73.8061 283° West 167 192 1,300  Level Boston Center
Fri 05:47:13 AM 42.7903 -73.8094 353° North 173 199 2,000 2,270 Climbing Boston Center
Fri 05:48:03 AM 42.8272 -73.8528 319° Northwest 214 246 4,100 2,073 Climbing Boston Center
Fri 05:49:00 AM 42.8076 -74.1529 281° West  Level FlightAware Approximate
Fri 05:49:03 AM 42.8683 -73.9047 317° Northwest 214 246 5,800  Level Boston Center
Fri 05:50:00 AM 42.8250 -74.2749 281° West  Level FlightAware Approximate
Fri 05:50:03 AM 42.9278 -73.9797 317° Northwest 247 284 8,600  Level Boston Center
Fri 05:51:00 AM 42.8439 -74.3964 283° West  Level FlightAware Approximate
Fri 05:51:03 AM 42.9789 -74.0464 316° Northwest 268 308 10,700  Level Boston Center
Fri 05:52:00 AM 42.8641 -74.5177 283° West  Level FlightAware Approximate
Fri 05:52:03 AM 43.0486 -74.1306 319° Northwest 297 342 11,800  Level Boston Center
Fri 05:53:03 AM 43.1097 -74.2147 315° West 328 377 13,100 1,500 Climbing Boston Center
Fri 05:54:03 AM 43.1264 -74.3547 279° West 323 372 14,800 1,550 Climbing Boston Center
Fri 05:55:03 AM 43.1303 -74.4914 272° West 336 387 16,200 1,450 Climbing Boston Center
Fri 05:56:03 AM 43.1339 -74.6281 272° West 356 410 17,700 1,250 Climbing Boston Center
Fri 05:57:03 AM 43.1375 -74.7647 272° West 361 415 18,700 1,000 Climbing Boston Center
Fri 05:58:03 AM 43.1406 -74.9072 272° West 367 422 19,700 1,050 Climbing Boston Center
Fri 05:59:03 AM 43.1439 -75.0494 272° West 372 428 20,800 1,050 Climbing Boston Center
Fri 06:00:03 AM 43.1464 -75.1978 271° West 378 435 21,800 900 Climbing Boston Center
Fri 06:01:03 AM 43.1492 -75.3431 272° West 383 441 22,600 800 Climbing Boston Center
Fri 06:02:03 AM 43.1536 -75.4911 272° West 383 441 23,400 850 Climbing Boston Center
Fri 06:03:03 AM 43.1558 -75.6367 271° West 388 447 24,300 850 Climbing Boston Center
Fri 06:04:03 AM 43.1578 -75.7847 271° West 388 447 25,100 800 Climbing Boston Center
Fri 06:05:03 AM 43.1597 -75.9328 271° West 388 447 25,900 576 Climbing Boston Center
Fri 06:07:21 AM 43.1569 -76.2597 269° West 377 434 27,000 485 Climbing Cleveland Center
Fri 06:08:21 AM 43.1433 -76.4058 263° West 393 452 27,500 500 Climbing Cleveland Center
Fri 06:09:21 AM 43.1300 -76.5575 263° West 398 458 28,000 250 Climbing Cleveland Center
Fri 06:10:21 AM 43.1150 -76.7264 263° West 403 464 28,000  Level Cleveland Center
Fri 06:11:21 AM 43.1033 -76.8808 264° West 409 471 28,000  Level Cleveland Center
Fri 06:12:21 AM 43.0875 -77.0381 262° West 414 476 28,000  Level Cleveland Center
Fri 06:13:21 AM 43.0733 -77.1925 263° West 414 476 28,000  Level Cleveland Center
Fri 06:14:21 AM 43.0608 -77.3436 264° West 408 470 28,000  Level Cleveland Center
Fri 06:15:21 AM 43.0464 -77.4950 263° West 408 470 28,000  Level Cleveland Center
Fri 06:16:21 AM 43.0314 -77.6464 262° West 408 470 28,000  Level Cleveland Center
Fri 06:17:21 AM 43.0186 -77.8003 264° West 408 470 28,000  Level Cleveland Center
Fri 06:18:21 AM 43.0033 -77.9486 262° West 408 470 28,000  Level Cleveland Center
Fri 06:19:21 AM 42.9897 -78.0825 262° West 408 470 28,000  Level Cleveland Center
Fri 06:20:21 AM 42.9742 -78.2336 262° West 408 470 28,000  Level Cleveland Center
Fri 06:21:21 AM 42.9603 -78.3817 263° West 408 470 28,000  Level Cleveland Center
Fri 06:22:21 AM 42.9444 -78.5328 262° West 408 470 28,000  Level Cleveland Center
Fri 06:23:21 AM 42.9261 -78.6836 261° West 408 470 28,000  Level Cleveland Center
Fri 06:24:21 AM 42.9056 -78.8286 259° West 408 470 28,000  Level Cleveland Center
Fri 06:25:21 AM 42.8847 -78.9767 259° West 403 464 28,000  Level Cleveland Center
Fri 06:26:21 AM 42.8636 -79.1217 259° West 398 458 28,000  Level Cleveland Center
Fri 06:27:21 AM 42.8425 -79.2722 259° West 398 458 28,000  Level Cleveland Center
Fri 06:28:21 AM 42.8211 -79.4169 259° West 398 458 28,000  Level Cleveland Center
Fri 06:29:21 AM 42.7994 -79.5589 258° West 398 458 28,000  Level Cleveland Center
Fri 06:30:21 AM 42.7800 -79.7036 260° West 393 452 28,000  Level Cleveland Center
Fri 06:31:21 AM 42.7581 -79.8481 258° West 393 452 28,000  Level Cleveland Center
Fri 06:32:21 AM 42.7442 -79.9953 263° West 393 452 28,000  Level Cleveland Center
Fri 06:33:21 AM 42.7408 -80.1450 268° West 399 459 28,000  Level Cleveland Center
Fri 06:34:21 AM 42.7350 -80.2864 267° West 387 445 28,000  Level Cleveland Center
Fri 06:35:21 AM 42.7289 -80.4306 267° West 382 440 28,000  Level Cleveland Center
Fri 06:36:21 AM 42.7208 -80.5803 266° West 393 452 28,000  Level Cleveland Center
Fri 06:37:21 AM 42.7144 -80.7414 267° West 393 452 28,000  Level Cleveland Center
Fri 06:38:21 AM 42.7078 -80.8939 267° West 393 452 28,000  Level Cleveland Center
Fri 06:39:21 AM 42.6906 -81.0381 261° West 393 452 28,000  Level Cleveland Center
Fri 06:40:21 AM 42.6733 -81.1875 261° West 398 458 28,000  Level Cleveland Center
Fri 06:41:21 AM 42.6578 -81.3369 262° West 407 468 28,000 -850 Level Cleveland Center
Fri 06:42:21 AM 42.6381 -81.4864 260° West 407 468 26,300 -1,850 Descending Cleveland Center
Fri 06:43:21 AM 42.6222 -81.6272 261° West 402 463 24,300 -1,950 Descending Cleveland Center
Fri 06:44:21 AM 42.6061 -81.7736 262° West 402 463 22,400 -1,900 Descending Cleveland Center
Fri 06:45:21 AM 42.5881 -81.9172 260° West 397 457 20,500 -1,900 Descending Cleveland Center
Fri 06:46:21 AM 42.5675 -82.0603 259° West 391 450 18,600 -2,000 Descending Cleveland Center
Fri 06:47:21 AM 42.5531 -82.1983 262° West 391 450 16,500 -2,063 Descending Cleveland Center
Fri 06:47:57 AM 42.5433 -82.2881 262° West 366 421 15,300 -1,800 Descending Cleveland Center
Fri 06:48:21 AM 42.5344 -82.3358 256° West 385 443 14,700 -1,643 Descending Cleveland Center
Fri 06:49:21 AM 42.5197 -82.4650 261° West 375 432 13,000 -1,400 Descending Cleveland Center
Fri 06:50:21 AM 42.4928 -82.5853 253° West 357 411 11,900 -1,200 Descending Cleveland Center
Fri 06:51:21 AM 42.4536 -82.6853 242° Southwest 325 374 10,600 -1,250 Descending Cleveland Center
Fri 06:52:21 AM 42.4206 -82.7714 243° Southwest 292 336 9,400 -1,300 Descending Cleveland Center
Fri 06:53:21 AM 42.3939 -82.8547 247° West 261 300 8,000 -1,200 Descending Cleveland Center
Fri 06:54:21 AM 42.3964 -82.9450 272° West 243 280 7,000 -857 Descending Cleveland Center
Fri 06:54:38 AM 42.3978 -82.9731 274° West 238 274 6,900 -1,000 Descending Cleveland Center
Fri 06:55:21 AM 42.3986 -83.0322 271° West 237 273 6,000 -1,279 Descending Cleveland Center
Fri 06:55:39 AM 42.4003 -83.0575 275° West 231 266 5,600 -1,300 Descending Cleveland Center
Fri 06:56:21 AM 42.4008 -83.1194 271° West 232 267 4,700 -1,200 Descending Cleveland Center
Fri 06:56:39 AM 42.3983 -83.1475 263° West 223 257 4,400 -700 Descending Cleveland Center
Fri 06:57:21 AM 42.3825 -83.1947 246° West 226 260 4,000 -492 Descending Cleveland Center
Fri 06:58:41 AM 42.3375 -83.2489 222° Southwest 156 180 3,400 -600 Descending Cleveland Center
Fri 06:59:41 AM 42.3036 -83.2756 210° Southwest 125 144 2,600 -694 Descending Cleveland Center
Fri 07:00:42 AM 42.2739 -83.2939 205° Southwest 116 133 2,000 -590 Descending Cleveland Center

Login

Don't have an account? Register now (free) for customized features, flight alerts, and more!